createdAt,value
2023-03-07T00:01:08.702Z,67.53
2023-03-07T00:03:37.060Z,74.97
2023-03-07T00:06:10.459Z,73.30
2023-03-07T00:08:37.793Z,74.90
2023-03-07T00:11:07.306Z,73.80
2023-03-07T00:13:35.850Z,75.93
2023-03-07T00:16:05.007Z,66.30
2023-03-07T00:18:32.421Z,71.70
2023-03-07T00:21:01.327Z,65.87
2023-03-07T00:23:28.462Z,67.90
2023-03-07T00:26:04.235Z,68.03
2023-03-07T00:28:31.783Z,60.87
2023-03-07T00:31:03.704Z,58.90
2023-03-07T00:33:31.124Z,56.80
2023-03-07T00:36:18.954Z,57.70
2023-03-07T00:38:46.942Z,61.13
2023-03-07T00:41:26.044Z,63.30
2023-03-07T00:43:54.055Z,61.40
2023-03-07T00:46:23.127Z,64.10
2023-03-07T00:48:50.132Z,60.33
2023-03-07T00:51:18.446Z,58.90
2023-03-07T00:53:45.464Z,67.00
2023-03-07T00:56:16.745Z,64.63
2023-03-07T00:58:44.238Z,61.10
2023-03-07T01:01:13.647Z,65.73
2023-03-07T01:03:40.658Z,61.00
2023-03-07T01:06:15.036Z,64.27
2023-03-07T01:08:42.241Z,67.37
2023-03-07T01:11:10.809Z,66.43
2023-03-07T01:13:37.786Z,68.23
2023-03-07T01:16:23.336Z,69.37
2023-03-07T01:18:56.224Z,72.00
2023-03-07T01:21:24.606Z,72.27
2023-03-07T01:23:52.544Z,74.33
2023-03-07T01:26:25.798Z,76.00
2023-03-07T01:28:55.174Z,79.97
2023-03-07T01:31:22.480Z,85.87
2023-03-07T01:33:51.510Z,125.00
2023-03-07T01:36:25.583Z,109.53
2023-03-07T01:38:55.822Z,101.93
2023-03-07T01:41:22.991Z,100.03
2023-03-07T01:43:50.261Z,93.57
2023-03-07T01:46:34.622Z,93.20
2023-03-07T01:49:07.704Z,90.67
2023-03-07T01:51:36.679Z,91.03
2023-03-07T01:54:06.592Z,97.30
2023-03-07T01:56:36.676Z,88.27
2023-03-07T01:59:04.540Z,79.23
2023-03-07T02:01:32.399Z,89.73
2023-03-07T02:04:32.387Z,102.23
2023-03-07T02:07:01.511Z,109.97
2023-03-07T02:09:31.143Z,100.67
2023-03-07T02:12:00.735Z,91.37
2023-03-07T02:14:27.788Z,84.87
2023-03-07T02:16:54.870Z,83.33
2023-03-07T02:19:50.938Z,83.87
2023-03-07T02:22:19.180Z,78.40
2023-03-07T02:24:56.745Z,86.87
2023-03-07T02:27:25.849Z,81.90
2023-03-07T02:29:53.193Z,89.30
2023-03-07T02:32:20.668Z,93.17
2023-03-07T02:34:47.525Z,90.47
2023-03-07T02:37:23.943Z,88.30
2023-03-07T02:39:51.387Z,93.23
2023-03-07T02:42:23.529Z,86.57
2023-03-07T02:44:59.976Z,93.10
2023-03-07T02:47:27.291Z,78.30
2023-03-07T02:49:54.559Z,89.93
2023-03-07T02:52:22.385Z,93.33
2023-03-07T02:54:49.352Z,88.13
2023-03-07T02:57:16.693Z,89.27
2023-03-07T02:59:43.638Z,85.67
2023-03-07T03:02:10.996Z,84.33
2023-03-07T03:04:38.058Z,80.93
2023-03-07T03:07:05.499Z,92.37
2023-03-07T03:09:32.801Z,87.53
2023-03-07T03:11:59.874Z,90.97
2023-03-07T03:14:26.865Z,88.80
2023-03-07T03:16:54.510Z,87.03
2023-03-07T03:19:21.879Z,86.50
2023-03-07T03:21:48.982Z,84.50
2023-03-07T03:24:15.965Z,87.13
2023-03-07T03:26:42.891Z,85.57
2023-03-07T03:29:10.252Z,80.87
2023-03-07T03:31:37.452Z,71.47
2023-03-07T03:34:05.752Z,79.90
2023-03-07T03:36:32.921Z,75.07
2023-03-07T03:39:00.512Z,82.50
2023-03-07T03:41:27.462Z,75.77
2023-03-07T03:43:54.324Z,79.70
2023-03-07T03:46:21.390Z,75.67
2023-03-07T03:48:53.600Z,83.63
2023-03-07T03:51:21.658Z,83.67
2023-03-07T03:53:48.649Z,81.77
2023-03-07T03:56:18.276Z,80.27
2023-03-07T03:58:48.268Z,83.90
2023-03-07T04:01:15.348Z,96.07
2023-03-07T04:03:45.545Z,107.83
2023-03-07T04:06:16.166Z,96.30
2023-03-07T04:08:43.348Z,111.00
2023-03-07T04:11:10.531Z,208.70
2023-03-07T04:13:37.653Z,162.37
2023-03-07T04:16:05.313Z,248.47
2023-03-07T04:18:32.394Z,162.50
2023-03-07T04:20:59.485Z,92.30
2023-03-07T04:23:27.732Z,131.00
2023-03-07T04:25:59.758Z,117.37
2023-03-07T04:29:01.820Z,171.33
2023-03-07T04:31:29.228Z,152.50
2023-03-07T04:33:57.549Z,129.27
2023-03-07T04:36:25.435Z,129.00
2023-03-07T04:38:52.340Z,119.37
2023-03-07T04:41:26.233Z,108.60
2023-03-07T04:43:53.353Z,88.07
2023-03-07T04:46:20.899Z,75.30
2023-03-07T04:48:48.031Z,82.37
2023-03-07T04:51:15.353Z,71.43
2023-03-07T04:53:42.314Z,69.57
2023-03-07T04:56:10.530Z,69.10
2023-03-07T04:58:37.892Z,69.67
2023-03-07T05:01:05.994Z,81.00
2023-03-07T05:03:33.157Z,86.20
2023-03-07T05:06:06.011Z,87.47
2023-03-07T05:08:33.343Z,92.27
2023-03-07T05:11:00.216Z,96.80
2023-03-07T05:13:27.177Z,103.07
2023-03-07T05:15:56.698Z,94.10
2023-03-07T05:18:24.068Z,90.53
2023-03-07T05:20:51.700Z,98.67
2023-03-07T05:23:19.739Z,86.97
2023-03-07T05:25:50.149Z,90.87
2023-03-07T05:28:17.862Z,83.53
2023-03-07T05:30:46.499Z,80.40
2023-03-07T05:33:13.998Z,70.53
2023-03-07T05:35:41.129Z,60.57
2023-03-07T05:38:08.497Z,55.57
2023-03-07T05:40:35.670Z,61.30
2023-03-07T05:43:02.835Z,60.83
2023-03-07T05:45:29.989Z,61.50
2023-03-07T05:47:57.305Z,87.63
2023-03-07T05:50:24.448Z,68.07
2023-03-07T05:52:53.164Z,74.80
2023-03-07T05:55:20.339Z,71.50
2023-03-07T05:57:47.570Z,77.10
2023-03-07T06:00:16.188Z,57.77
2023-03-07T06:02:43.299Z,63.33
2023-03-07T06:05:10.485Z,62.43
2023-03-07T06:07:37.510Z,61.10
2023-03-07T06:10:04.998Z,54.90
2023-03-07T06:12:31.833Z,48.73
2023-03-07T06:14:58.862Z,48.60
2023-03-07T06:17:25.925Z,53.23
2023-03-07T06:19:52.832Z,56.13
2023-03-07T06:22:19.785Z,53.97
2023-03-07T06:24:46.871Z,74.70
2023-03-07T06:27:13.922Z,81.40
2023-03-07T06:29:40.898Z,70.90
2023-03-07T06:32:07.918Z,74.47
2023-03-07T06:34:34.918Z,76.57
2023-03-07T06:37:01.825Z,61.10
2023-03-07T06:39:31.211Z,64.57
2023-03-07T06:41:58.233Z,54.27
2023-03-07T06:44:25.120Z,56.40
2023-03-07T06:46:52.177Z,47.23
2023-03-07T06:49:19.029Z,44.23
2023-03-07T06:51:45.966Z,41.83
2023-03-07T06:54:12.836Z,48.60
2023-03-07T06:56:39.983Z,45.13
2023-03-07T06:59:06.852Z,44.87
2023-03-07T07:01:35.728Z,42.10
2023-03-07T07:04:02.873Z,55.70
2023-03-07T07:06:29.836Z,42.10
2023-03-07T07:08:58.697Z,45.77
2023-03-07T07:11:26.555Z,44.57
2023-03-07T07:13:53.680Z,36.47
2023-03-07T07:16:20.674Z,36.30
2023-03-07T07:18:47.956Z,35.23
2023-03-07T07:21:14.802Z,42.03
2023-03-07T07:23:41.885Z,40.17
2023-03-07T07:26:09.118Z,34.30
2023-03-07T07:28:36.403Z,32.67
2023-03-07T07:31:04.179Z,35.90
2023-03-07T07:33:31.839Z,40.87
2023-03-07T07:35:58.801Z,39.10
2023-03-07T07:38:25.682Z,31.53
2023-03-07T07:40:52.623Z,25.47
2023-03-07T07:43:19.500Z,30.40
2023-03-07T07:45:46.363Z,26.23
2023-03-07T07:48:13.258Z,25.80
2023-03-07T07:50:40.652Z,23.30
2023-03-07T07:53:07.680Z,24.93
2023-03-07T07:55:34.565Z,22.63
2023-03-07T07:58:01.383Z,25.70
2023-03-07T08:00:28.689Z,25.13
2023-03-07T08:02:55.740Z,23.48
2023-03-07T08:05:23.011Z,20.73
2023-03-07T08:07:50.565Z,26.50
2023-03-07T08:10:18.179Z,19.00
2023-03-07T08:12:47.915Z,21.58
2023-03-07T08:15:17.135Z,23.15
2023-03-07T08:17:44.571Z,19.50
2023-03-07T08:20:11.816Z,18.25
2023-03-07T08:22:39.135Z,19.63
2023-03-07T08:25:07.517Z,17.20
2023-03-07T08:27:34.688Z,14.93
2023-03-07T08:30:01.722Z,21.10
2023-03-07T08:32:28.719Z,16.48
2023-03-07T08:34:55.633Z,17.17
2023-03-07T08:37:22.602Z,18.55
2023-03-07T08:39:49.496Z,17.58
2023-03-07T08:42:16.476Z,14.48
2023-03-07T08:44:43.443Z,14.80
2023-03-07T08:47:12.236Z,19.13
2023-03-07T08:49:40.134Z,15.90
2023-03-07T08:52:07.184Z,14.43
2023-03-07T08:54:34.146Z,17.73
2023-03-07T08:57:01.038Z,18.02
2023-03-07T08:59:28.030Z,18.70
2023-03-07T09:01:56.989Z,15.27
2023-03-07T09:04:24.465Z,17.70
2023-03-07T09:06:51.980Z,15.95
2023-03-07T09:09:18.956Z,17.48
2023-03-07T09:11:45.749Z,17.23
2023-03-07T09:14:12.568Z,19.02
2023-03-07T09:16:39.539Z,18.98
2023-03-07T09:19:06.604Z,15.75
2023-03-07T09:21:33.458Z,18.67
2023-03-07T09:24:00.328Z,16.15
2023-03-07T09:26:27.398Z,16.88
2023-03-07T09:28:54.366Z,17.65
2023-03-07T09:31:21.596Z,17.48
2023-03-07T09:33:48.910Z,17.15
2023-03-07T09:36:18.089Z,17.15
2023-03-07T09:38:45.680Z,17.08
2023-03-07T09:41:21.499Z,15.52
2023-03-07T09:44:01.190Z,17.63
2023-03-07T09:46:46.998Z,19.10
2023-03-07T09:49:18.231Z,17.53
2023-03-07T09:51:50.404Z,15.90
2023-03-07T09:54:53.297Z,17.83
2023-03-07T09:57:26.398Z,16.00
2023-03-07T09:59:58.519Z,18.20
2023-03-07T10:02:39.254Z,15.47
2023-03-07T10:05:08.811Z,16.27
2023-03-07T10:07:36.218Z,15.65
2023-03-07T10:10:11.064Z,16.60
2023-03-07T10:13:02.541Z,16.77
2023-03-07T10:15:54.156Z,14.40
2023-03-07T10:18:39.302Z,15.18
2023-03-07T10:21:32.970Z,17.10
2023-03-07T10:24:06.210Z,16.80
2023-03-07T10:26:35.285Z,15.35
2023-03-07T10:29:21.989Z,16.17
2023-03-07T10:31:55.357Z,15.93
2023-03-07T10:34:28.771Z,15.50
2023-03-07T10:37:09.510Z,15.77
2023-03-07T10:39:44.781Z,13.43
2023-03-07T10:42:13.789Z,15.63
2023-03-07T10:44:41.984Z,16.43
2023-03-07T10:47:14.932Z,18.03
2023-03-07T10:49:46.062Z,16.87
2023-03-07T10:52:35.262Z,15.57
2023-03-07T10:55:33.050Z,16.03
2023-03-07T10:58:32.477Z,16.40
2023-03-07T11:01:08.518Z,15.97
2023-03-07T11:03:55.890Z,15.50
2023-03-07T11:06:41.544Z,14.37
2023-03-07T11:09:17.025Z,15.87
2023-03-07T11:12:11.439Z,14.27
2023-03-07T11:14:50.380Z,15.30
2023-03-07T11:17:39.093Z,15.97
2023-03-07T11:20:21.762Z,15.67
2023-03-07T11:22:48.767Z,14.10
2023-03-07T11:25:25.902Z,17.03
2023-03-07T11:27:55.711Z,19.67
2023-03-07T11:30:25.683Z,12.63
2023-03-07T11:32:54.096Z,13.63
2023-03-07T11:35:24.916Z,15.07
2023-03-07T11:38:14.073Z,17.23
2023-03-07T11:40:50.853Z,13.57
2023-03-07T11:43:44.257Z,14.17
2023-03-07T11:46:17.070Z,16.10
2023-03-07T11:49:01.626Z,13.03
2023-03-07T11:52:12.859Z,16.10
2023-03-07T11:54:42.432Z,17.47
2023-03-07T11:57:38.198Z,13.77
2023-03-07T12:00:38.378Z,16.90
2023-03-07T12:03:08.101Z,15.73
2023-03-07T12:05:58.249Z,14.87
2023-03-07T12:08:36.332Z,13.03
2023-03-07T12:11:38.437Z,15.53
2023-03-07T12:14:08.311Z,15.53
2023-03-07T12:17:01.888Z,16.83
2023-03-07T12:19:59.139Z,16.20
2023-03-07T12:22:35.583Z,13.27
2023-03-07T12:25:08.581Z,14.63
2023-03-07T12:28:07.060Z,16.83
2023-03-07T12:31:05.953Z,13.83
2023-03-07T12:33:51.801Z,16.33
2023-03-07T12:36:44.640Z,12.90
2023-03-07T12:39:37.262Z,17.03
2023-03-07T12:42:28.168Z,13.97
2023-03-07T12:45:08.659Z,19.53
2023-03-07T12:47:54.208Z,23.43
2023-03-07T12:50:33.619Z,16.37
2023-03-07T12:53:05.592Z,16.50
2023-03-07T12:55:38.780Z,14.87
2023-03-07T12:58:13.474Z,16.60
2023-03-07T13:00:45.371Z,14.50
2023-03-07T13:03:21.225Z,17.40
2023-03-07T13:05:48.597Z,20.53
2023-03-07T13:08:23.536Z,16.03
2023-03-07T13:10:51.236Z,18.63
2023-03-07T13:13:43.449Z,20.60
2023-03-07T13:16:40.542Z,16.83
2023-03-07T13:19:29.319Z,16.70
2023-03-07T13:21:56.397Z,16.83
2023-03-07T13:24:44.773Z,15.37
2023-03-07T13:27:27.343Z,14.27
2023-03-07T13:30:12.858Z,13.00
2023-03-07T13:32:51.960Z,13.27
2023-03-07T13:35:31.287Z,11.07
2023-03-07T13:38:32.526Z,17.67
2023-03-07T13:41:04.577Z,15.63
2023-03-07T13:43:35.645Z,21.10
2023-03-07T13:46:36.426Z,14.60
2023-03-07T13:49:03.984Z,12.50
2023-03-07T13:51:31.026Z,11.33
2023-03-07T13:54:04.575Z,16.77
2023-03-07T13:56:37.194Z,13.83
2023-03-07T13:59:10.231Z,12.10
2023-03-07T14:01:44.134Z,10.77
2023-03-07T14:04:43.197Z,11.67
2023-03-07T14:07:31.972Z,13.73
2023-03-07T14:10:23.537Z,13.83
2023-03-07T14:13:01.237Z,12.90
2023-03-07T14:15:33.982Z,12.03
2023-03-07T14:18:04.257Z,13.00
2023-03-07T14:21:06.994Z,14.97
2023-03-07T14:24:11.515Z,14.50
2023-03-07T14:26:44.992Z,22.77
2023-03-07T14:29:26.164Z,17.03
2023-03-07T14:31:56.965Z,15.77
2023-03-07T14:34:36.275Z,15.73
2023-03-07T14:37:07.941Z,14.73
2023-03-07T14:39:59.977Z,16.57
2023-03-07T14:42:44.899Z,15.47
2023-03-07T14:45:32.557Z,12.17
2023-03-07T14:48:11.353Z,14.00
2023-03-07T14:50:44.329Z,16.27
2023-03-07T14:53:43.448Z,14.47
2023-03-07T14:56:11.122Z,15.23
2023-03-07T14:58:49.490Z,19.83
2023-03-07T15:01:19.757Z,15.47
2023-03-07T15:03:54.398Z,15.37
2023-03-07T15:06:25.026Z,13.90
2023-03-07T15:08:55.355Z,16.77
2023-03-07T15:12:03.785Z,59.13
2023-03-07T15:14:44.758Z,56.90
2023-03-07T15:17:19.174Z,19.33
2023-03-07T15:19:51.629Z,25.30
2023-03-07T15:22:25.474Z,30.43
2023-03-07T15:24:53.078Z,28.50
2023-03-07T15:27:31.843Z,21.90
2023-03-07T15:30:00.991Z,23.10
2023-03-07T15:32:31.064Z,21.57
2023-03-07T15:35:03.898Z,22.33
2023-03-07T15:37:35.070Z,22.63
2023-03-07T15:40:10.597Z,24.40
2023-03-07T15:43:15.524Z,30.20
2023-03-07T15:45:45.711Z,20.40
2023-03-07T15:48:12.973Z,30.30
2023-03-07T15:50:40.400Z,24.83
2023-03-07T15:53:10.614Z,24.37
2023-03-07T15:55:39.345Z,16.63
2023-03-07T15:58:14.106Z,28.90
2023-03-07T16:00:42.274Z,32.70
2023-03-07T16:03:29.983Z,26.10
2023-03-07T16:05:59.613Z,32.50
2023-03-07T16:08:27.750Z,48.00
2023-03-07T16:11:06.858Z,48.33
2023-03-07T16:13:42.747Z,34.67
2023-03-07T16:16:12.737Z,34.33
2023-03-07T16:18:40.831Z,72.13
2023-03-07T16:21:13.913Z,45.03
2023-03-07T16:23:41.381Z,22.53
2023-03-07T16:26:12.236Z,23.23
2023-03-07T16:28:39.978Z,40.63
2023-03-07T16:31:16.163Z,29.80
2023-03-07T16:33:43.988Z,35.90
2023-03-07T16:36:11.818Z,27.97
2023-03-07T16:38:39.071Z,26.37
2023-03-07T16:41:19.761Z,39.00
2023-03-07T16:43:47.414Z,30.90
2023-03-07T16:46:18.924Z,26.43
2023-03-07T16:48:46.684Z,16.37
2023-03-07T16:51:19.422Z,33.17
2023-03-07T16:53:46.977Z,23.23
2023-03-07T16:56:28.104Z,17.27
2023-03-07T16:58:55.519Z,33.70
2023-03-07T17:01:22.787Z,35.03
2023-03-07T17:03:50.162Z,50.23
2023-03-07T17:06:18.272Z,36.47
2023-03-07T17:08:45.947Z,35.73
2023-03-07T17:11:19.945Z,37.67
2023-03-07T17:13:49.333Z,30.23
2023-03-07T17:16:17.033Z,40.30
2023-03-07T17:18:44.393Z,29.73
2023-03-07T17:21:14.451Z,30.37
2023-03-07T17:23:44.121Z,39.40
2023-03-07T17:26:26.496Z,29.30
2023-03-07T17:28:54.267Z,27.93
2023-03-07T17:31:21.569Z,30.57
2023-03-07T17:33:49.951Z,38.43
2023-03-07T17:36:17.686Z,34.77
2023-03-07T17:38:45.098Z,27.20
2023-03-07T17:41:15.526Z,26.20
2023-03-07T17:43:42.892Z,30.60
2023-03-07T17:46:11.502Z,21.70
2023-03-07T17:48:39.220Z,27.70
2023-03-07T17:51:10.583Z,21.33
2023-03-07T17:53:39.119Z,30.80
2023-03-07T17:56:11.528Z,20.63
2023-03-07T17:58:39.265Z,19.80
2023-03-07T18:01:08.533Z,19.47
2023-03-07T18:03:36.399Z,31.70
2023-03-07T18:06:04.577Z,23.73
2023-03-07T18:08:33.032Z,25.60
2023-03-07T18:11:11.130Z,29.87
2023-03-07T18:13:38.905Z,18.07
2023-03-07T18:16:07.306Z,19.07
2023-03-07T18:18:37.242Z,15.33
2023-03-07T18:21:11.728Z,25.60
2023-03-07T18:23:39.865Z,25.77
2023-03-07T18:26:14.025Z,29.80
2023-03-07T18:28:43.274Z,25.70
2023-03-07T18:31:14.537Z,25.13
2023-03-07T18:33:42.404Z,26.43
2023-03-07T18:36:13.565Z,23.97
2023-03-07T18:38:41.196Z,23.27
2023-03-07T18:41:16.476Z,23.83
2023-03-07T18:43:43.867Z,24.43
2023-03-07T18:46:14.632Z,28.37
2023-03-07T18:48:42.234Z,21.90
2023-03-07T18:51:11.588Z,20.23
2023-03-07T18:53:39.344Z,18.27
2023-03-07T18:56:09.123Z,25.20
2023-03-07T18:58:36.628Z,28.53
2023-03-07T19:01:17.387Z,29.77
2023-03-07T19:03:45.666Z,30.77
2023-03-07T19:06:15.055Z,22.57
2023-03-07T19:08:43.125Z,23.73
2023-03-07T19:11:12.326Z,27.97
2023-03-07T19:13:40.342Z,25.17
2023-03-07T19:16:13.365Z,23.30
2023-03-07T19:18:41.231Z,21.83
2023-03-07T19:21:13.869Z,22.87
2023-03-07T19:23:42.051Z,28.30
2023-03-07T19:26:12.506Z,26.40
2023-03-07T19:28:40.972Z,27.00
2023-03-07T19:31:09.488Z,27.70
2023-03-07T19:33:38.028Z,26.27
2023-03-07T19:36:07.621Z,23.67
2023-03-07T19:38:36.157Z,23.20
2023-03-07T19:41:05.408Z,19.27
2023-03-07T19:43:33.254Z,15.70
2023-03-07T19:46:01.925Z,15.33
2023-03-07T19:48:30.108Z,15.80
2023-03-07T19:50:57.391Z,14.40
2023-03-07T19:53:24.812Z,13.53
2023-03-07T19:55:52.158Z,15.60
2023-03-07T19:58:19.438Z,13.90
2023-03-07T20:00:47.238Z,14.60
2023-03-07T20:03:19.772Z,14.53
2023-03-07T20:05:48.969Z,14.43
2023-03-07T20:08:16.411Z,11.60
2023-03-07T20:10:44.892Z,16.00
2023-03-07T20:13:14.256Z,15.57
2023-03-07T20:15:43.011Z,14.80
2023-03-07T20:18:11.282Z,13.60
2023-03-07T20:20:38.672Z,13.30
2023-03-07T20:23:05.997Z,15.20
2023-03-07T20:25:32.929Z,14.93
2023-03-07T20:27:59.749Z,11.73
2023-03-07T20:30:27.033Z,14.77
2023-03-07T20:32:54.496Z,14.23
2023-03-07T20:35:21.880Z,13.17
2023-03-07T20:37:49.475Z,14.93
2023-03-07T20:40:17.797Z,12.80
2023-03-07T20:42:45.273Z,13.87
2023-03-07T20:45:13.054Z,14.73
2023-03-07T20:47:40.846Z,16.07
2023-03-07T20:50:08.325Z,15.07
2023-03-07T20:52:36.485Z,16.23
2023-03-07T20:55:05.210Z,14.33
2023-03-07T20:57:32.563Z,14.33
2023-03-07T21:00:00.530Z,14.07
2023-03-07T21:02:27.628Z,15.90
2023-03-07T21:04:54.908Z,13.17
2023-03-07T21:07:22.184Z,13.10
2023-03-07T21:09:51.075Z,16.20
2023-03-07T21:12:18.287Z,16.73
2023-03-07T21:14:45.306Z,18.87
2023-03-07T21:17:13.320Z,14.90
2023-03-07T21:19:40.312Z,17.40
2023-03-07T21:22:07.690Z,14.93
2023-03-07T21:24:34.584Z,11.03
2023-03-07T21:27:01.870Z,14.07
2023-03-07T21:29:28.891Z,18.37
2023-03-07T21:31:56.213Z,14.63
2023-03-07T21:34:23.789Z,12.73
2023-03-07T21:36:56.062Z,13.43
2023-03-07T21:39:24.523Z,14.07
2023-03-07T21:41:51.992Z,11.67
2023-03-07T21:44:19.473Z,18.13
2023-03-07T21:46:47.374Z,12.70
2023-03-07T21:49:14.838Z,12.17
2023-03-07T21:51:42.625Z,12.53
2023-03-07T21:54:10.140Z,13.27
2023-03-07T21:56:37.597Z,15.27
2023-03-07T21:59:04.927Z,13.10
2023-03-07T22:01:32.427Z,15.17
2023-03-07T22:04:00.382Z,13.00
2023-03-07T22:06:28.603Z,14.87
2023-03-07T22:08:55.898Z,12.47
2023-03-07T22:11:23.578Z,14.77
2023-03-07T22:13:51.274Z,10.50
2023-03-07T22:16:20.951Z,17.43
2023-03-07T22:18:56.067Z,16.00
2023-03-07T22:21:27.912Z,15.43
2023-03-07T22:23:58.282Z,18.90
2023-03-07T22:26:26.119Z,20.77
2023-03-07T22:28:54.166Z,19.17
2023-03-07T22:31:21.901Z,20.23
2023-03-07T22:33:49.428Z,15.93
2023-03-07T22:36:16.738Z,18.13
2023-03-07T22:38:44.377Z,18.07
2023-03-07T22:41:15.019Z,14.47
2023-03-07T22:43:42.431Z,16.87
2023-03-07T22:46:10.195Z,18.33
2023-03-07T22:48:37.529Z,17.67
2023-03-07T22:51:04.627Z,18.77
2023-03-07T22:53:32.957Z,15.90
2023-03-07T22:56:00.538Z,16.50
2023-03-07T22:58:29.262Z,14.33
2023-03-07T23:00:56.623Z,12.37
2023-03-07T23:03:23.810Z,13.00
2023-03-07T23:05:51.065Z,14.83
2023-03-07T23:08:18.094Z,10.70
2023-03-07T23:10:45.120Z,13.20
2023-03-07T23:13:12.325Z,12.30
2023-03-07T23:15:41.538Z,13.03
2023-03-07T23:18:09.360Z,18.20
2023-03-07T23:20:38.962Z,21.57
2023-03-07T23:23:06.180Z,17.23
2023-03-07T23:25:33.319Z,19.50
2023-03-07T23:28:00.585Z,16.43
2023-03-07T23:30:27.465Z,16.60
2023-03-07T23:32:55.307Z,14.10
2023-03-07T23:35:22.185Z,10.97
2023-03-07T23:37:49.103Z,8.90
2023-03-07T23:40:16.012Z,9.87
2023-03-07T23:42:42.892Z,9.10
2023-03-07T23:45:10.061Z,9.40
2023-03-07T23:47:37.006Z,10.03
2023-03-07T23:50:04.211Z,9.30
2023-03-07T23:52:31.057Z,16.50
2023-03-07T23:54:57.870Z,13.47
2023-03-07T23:57:24.835Z,13.57
2023-03-07T23:59:52.210Z,11.53
